sensor_id;sensor_type;location;lat;lon;timestamp;P1;durP1;ratioP1;P2;durP2;ratioP2
14080;SDS011;7116;52.152;5.392;2023-03-14T00:01:37;16.07;;;5.33;;
14080;SDS011;7116;52.152;5.392;2023-03-14T00:04:03;16.30;;;4.60;;
14080;SDS011;7116;52.152;5.392;2023-03-14T00:06:29;13.90;;;4.60;;
14080;SDS011;7116;52.152;5.392;2023-03-14T00:08:54;17.37;;;5.67;;
14080;SDS011;7116;52.152;5.392;2023-03-14T00:11:20;15.80;;;4.67;;
14080;SDS011;7116;52.152;5.392;2023-03-14T00:13:49;19.15;;;4.90;;
14080;SDS011;7116;52.152;5.392;2023-03-14T00:16:14;13.10;;;4.45;;
14080;SDS011;7116;52.152;5.392;2023-03-14T00:18:39;23.07;;;5.83;;
14080;SDS011;7116;52.152;5.392;2023-03-14T00:21:06;18.43;;;4.77;;
14080;SDS011;7116;52.152;5.392;2023-03-14T00:23:32;20.48;;;4.70;;
14080;SDS011;7116;52.152;5.392;2023-03-14T00:25:59;13.93;;;4.90;;
14080;SDS011;7116;52.152;5.392;2023-03-14T00:28:24;14.75;;;4.15;;
14080;SDS011;7116;52.152;5.392;2023-03-14T00:30:49;15.23;;;5.20;;
14080;SDS011;7116;52.152;5.392;2023-03-14T00:33:14;23.40;;;12.03;;
14080;SDS011;7116;52.152;5.392;2023-03-14T00:35:40;21.83;;;4.90;;
14080;SDS011;7116;52.152;5.392;2023-03-14T00:38:05;15.27;;;4.70;;
14080;SDS011;7116;52.152;5.392;2023-03-14T00:40:30;14.97;;;5.30;;
14080;SDS011;7116;52.152;5.392;2023-03-14T00:42:55;14.63;;;4.40;;
14080;SDS011;7116;52.152;5.392;2023-03-14T00:45:20;13.63;;;3.70;;
14080;SDS011;7116;52.152;5.392;2023-03-14T00:47:46;14.17;;;4.77;;
14080;SDS011;7116;52.152;5.392;2023-03-14T00:50:11;11.20;;;4.03;;
14080;SDS011;7116;52.152;5.392;2023-03-14T00:52:36;13.53;;;4.13;;
14080;SDS011;7116;52.152;5.392;2023-03-14T00:55:02;15.30;;;4.47;;
14080;SDS011;7116;52.152;5.392;2023-03-14T00:57:27;13.15;;;3.25;;
14080;SDS011;7116;52.152;5.392;2023-03-14T00:59:53;12.50;;;3.10;;
14080;SDS011;7116;52.152;5.392;2023-03-14T01:02:18;13.67;;;3.97;;
14080;SDS011;7116;52.152;5.392;2023-03-14T01:04:43;13.47;;;3.20;;
14080;SDS011;7116;52.152;5.392;2023-03-14T01:07:08;11.53;;;3.57;;
14080;SDS011;7116;52.152;5.392;2023-03-14T01:09:33;8.20;;;3.67;;
14080;SDS011;7116;52.152;5.392;2023-03-14T01:11:59;11.60;;;3.57;;
14080;SDS011;7116;52.152;5.392;2023-03-14T01:14:24;9.53;;;3.47;;
14080;SDS011;7116;52.152;5.392;2023-03-14T01:16:49;10.10;;;3.30;;
14080;SDS011;7116;52.152;5.392;2023-03-14T01:19:14;9.33;;;2.87;;
14080;SDS011;7116;52.152;5.392;2023-03-14T01:21:40;8.70;;;2.90;;
14080;SDS011;7116;52.152;5.392;2023-03-14T01:24:05;13.90;;;3.33;;
14080;SDS011;7116;52.152;5.392;2023-03-14T01:26:31;8.27;;;3.10;;
14080;SDS011;7116;52.152;5.392;2023-03-14T01:28:57;10.20;;;3.47;;
14080;SDS011;7116;52.152;5.392;2023-03-14T01:31:22;9.50;;;3.27;;
14080;SDS011;7116;52.152;5.392;2023-03-14T01:33:48;10.07;;;3.60;;
14080;SDS011;7116;52.152;5.392;2023-03-14T01:36:13;10.43;;;3.83;;
14080;SDS011;7116;52.152;5.392;2023-03-14T01:38:39;11.27;;;3.47;;
14080;SDS011;7116;52.152;5.392;2023-03-14T01:41:05;10.90;;;3.15;;
14080;SDS011;7116;52.152;5.392;2023-03-14T01:43:30;8.97;;;2.50;;
14080;SDS011;7116;52.152;5.392;2023-03-14T01:48:42;8.45;;;2.58;;
14080;SDS011;7116;52.152;5.392;2023-03-14T01:51:10;9.40;;;2.70;;
14080;SDS011;7116;52.152;5.392;2023-03-14T01:53:36;9.00;;;3.15;;
14080;SDS011;7116;52.152;5.392;2023-03-14T01:56:03;13.20;;;3.53;;
14080;SDS011;7116;52.152;5.392;2023-03-14T01:58:31;7.33;;;2.80;;
14080;SDS011;7116;52.152;5.392;2023-03-14T02:00:59;10.30;;;3.08;;
14080;SDS011;7116;52.152;5.392;2023-03-14T02:03:26;11.10;;;3.17;;
14080;SDS011;7116;52.152;5.392;2023-03-14T02:05:51;6.33;;;3.00;;
14080;SDS011;7116;52.152;5.392;2023-03-14T02:08:19;10.18;;;2.72;;
14080;SDS011;7116;52.152;5.392;2023-03-14T02:10:46;10.18;;;2.80;;
14080;SDS011;7116;52.152;5.392;2023-03-14T02:13:11;9.40;;;3.00;;
14080;SDS011;7116;52.152;5.392;2023-03-14T02:15:38;6.97;;;3.00;;
14080;SDS011;7116;52.152;5.392;2023-03-14T02:18:04;10.00;;;3.42;;
14080;SDS011;7116;52.152;5.392;2023-03-14T02:22:54;8.10;;;3.23;;
14080;SDS011;7116;52.152;5.392;2023-03-14T02:27:48;9.32;;;2.80;;
14080;SDS011;7116;52.152;5.392;2023-03-14T02:30:20;13.57;;;3.17;;
14080;SDS011;7116;52.152;5.392;2023-03-14T02:32:47;9.88;;;3.22;;
14080;SDS011;7116;52.152;5.392;2023-03-14T02:35:14;8.07;;;3.03;;
14080;SDS011;7116;52.152;5.392;2023-03-14T02:40:18;9.80;;;3.63;;
14080;SDS011;7116;52.152;5.392;2023-03-14T02:42:43;8.10;;;3.20;;
14080;SDS011;7116;52.152;5.392;2023-03-14T02:47:34;7.17;;;2.90;;
14080;SDS011;7116;52.152;5.392;2023-03-14T02:50:06;8.80;;;3.00;;
14080;SDS011;7116;52.152;5.392;2023-03-14T02:52:33;11.45;;;3.13;;
14080;SDS011;7116;52.152;5.392;2023-03-14T02:54:59;11.20;;;3.20;;
14080;SDS011;7116;52.152;5.392;2023-03-14T02:57:24;8.67;;;3.47;;
14080;SDS011;7116;52.152;5.392;2023-03-14T02:59:49;8.77;;;3.43;;
14080;SDS011;7116;52.152;5.392;2023-03-14T03:02:14;8.43;;;3.60;;
14080;SDS011;7116;52.152;5.392;2023-03-14T03:04:40;11.57;;;3.23;;
14080;SDS011;7116;52.152;5.392;2023-03-14T03:07:05;11.27;;;3.83;;
14080;SDS011;7116;52.152;5.392;2023-03-14T03:09:30;12.87;;;3.90;;
14080;SDS011;7116;52.152;5.392;2023-03-14T03:11:55;10.13;;;3.00;;
14080;SDS011;7116;52.152;5.392;2023-03-14T03:14:20;6.03;;;2.73;;
14080;SDS011;7116;52.152;5.392;2023-03-14T03:16:46;9.13;;;3.00;;
14080;SDS011;7116;52.152;5.392;2023-03-14T03:19:11;10.53;;;3.27;;
14080;SDS011;7116;52.152;5.392;2023-03-14T03:21:38;9.77;;;3.53;;
14080;SDS011;7116;52.152;5.392;2023-03-14T03:24:03;8.63;;;3.20;;
14080;SDS011;7116;52.152;5.392;2023-03-14T03:26:28;13.70;;;4.37;;
14080;SDS011;7116;52.152;5.392;2023-03-14T03:28:54;7.83;;;3.53;;
14080;SDS011;7116;52.152;5.392;2023-03-14T03:31:19;8.77;;;3.30;;
14080;SDS011;7116;52.152;5.392;2023-03-14T03:33:44;5.93;;;2.93;;
14080;SDS011;7116;52.152;5.392;2023-03-14T03:36:09;9.27;;;4.13;;
14080;SDS011;7116;52.152;5.392;2023-03-14T03:38:35;12.97;;;3.50;;
14080;SDS011;7116;52.152;5.392;2023-03-14T03:41:07;13.73;;;3.60;;
14080;SDS011;7116;52.152;5.392;2023-03-14T03:43:32;12.45;;;3.60;;
14080;SDS011;7116;52.152;5.392;2023-03-14T03:45:58;11.43;;;3.60;;
14080;SDS011;7116;52.152;5.392;2023-03-14T03:48:23;13.13;;;3.47;;
14080;SDS011;7116;52.152;5.392;2023-03-14T03:50:48;12.77;;;3.23;;
14080;SDS011;7116;52.152;5.392;2023-03-14T03:53:13;11.07;;;3.83;;
14080;SDS011;7116;52.152;5.392;2023-03-14T03:55:42;7.63;;;3.87;;
14080;SDS011;7116;52.152;5.392;2023-03-14T03:58:07;12.23;;;4.00;;
14080;SDS011;7116;52.152;5.392;2023-03-14T04:00:32;13.40;;;3.50;;
14080;SDS011;7116;52.152;5.392;2023-03-14T04:02:58;8.73;;;3.60;;
14080;SDS011;7116;52.152;5.392;2023-03-14T04:05:24;10.35;;;3.20;;
14080;SDS011;7116;52.152;5.392;2023-03-14T04:07:49;13.43;;;4.23;;
14080;SDS011;7116;52.152;5.392;2023-03-14T04:10:14;8.83;;;3.73;;
14080;SDS011;7116;52.152;5.392;2023-03-14T04:12:39;9.70;;;3.43;;
14080;SDS011;7116;52.152;5.392;2023-03-14T04:15:05;9.33;;;3.17;;
14080;SDS011;7116;52.152;5.392;2023-03-14T04:17:30;8.75;;;3.70;;
14080;SDS011;7116;52.152;5.392;2023-03-14T04:19:55;14.17;;;3.20;;
14080;SDS011;7116;52.152;5.392;2023-03-14T04:22:20;7.43;;;3.47;;
14080;SDS011;7116;52.152;5.392;2023-03-14T04:24:46;12.37;;;3.13;;
14080;SDS011;7116;52.152;5.392;2023-03-14T04:27:11;11.63;;;3.60;;
14080;SDS011;7116;52.152;5.392;2023-03-14T04:29:36;8.57;;;3.57;;
14080;SDS011;7116;52.152;5.392;2023-03-14T04:32:01;11.37;;;2.80;;
14080;SDS011;7116;52.152;5.392;2023-03-14T04:34:26;8.50;;;3.53;;
14080;SDS011;7116;52.152;5.392;2023-03-14T04:36:52;13.77;;;3.40;;
14080;SDS011;7116;52.152;5.392;2023-03-14T04:39:17;9.93;;;3.57;;
14080;SDS011;7116;52.152;5.392;2023-03-14T04:41:43;12.97;;;3.67;;
14080;SDS011;7116;52.152;5.392;2023-03-14T04:44:08;11.95;;;3.45;;
14080;SDS011;7116;52.152;5.392;2023-03-14T04:46:34;12.93;;;3.40;;
14080;SDS011;7116;52.152;5.392;2023-03-14T04:48:59;10.73;;;4.20;;
14080;SDS011;7116;52.152;5.392;2023-03-14T04:51:24;10.10;;;4.03;;
14080;SDS011;7116;52.152;5.392;2023-03-14T04:53:52;7.97;;;3.10;;
14080;SDS011;7116;52.152;5.392;2023-03-14T04:56:17;9.87;;;3.13;;
14080;SDS011;7116;52.152;5.392;2023-03-14T04:58:42;10.95;;;3.45;;
14080;SDS011;7116;52.152;5.392;2023-03-14T05:01:08;7.97;;;3.73;;
14080;SDS011;7116;52.152;5.392;2023-03-14T05:03:34;9.33;;;3.70;;
14080;SDS011;7116;52.152;5.392;2023-03-14T05:06:01;11.88;;;3.50;;
14080;SDS011;7116;52.152;5.392;2023-03-14T05:08:26;9.40;;;3.50;;
14080;SDS011;7116;52.152;5.392;2023-03-14T05:10:52;8.60;;;3.63;;
14080;SDS011;7116;52.152;5.392;2023-03-14T05:13:17;9.43;;;3.90;;
14080;SDS011;7116;52.152;5.392;2023-03-14T05:15:42;10.97;;;3.40;;
14080;SDS011;7116;52.152;5.392;2023-03-14T05:18:08;12.97;;;3.87;;
14080;SDS011;7116;52.152;5.392;2023-03-14T05:20:33;11.23;;;3.97;;
14080;SDS011;7116;52.152;5.392;2023-03-14T05:22:58;11.33;;;3.63;;
14080;SDS011;7116;52.152;5.392;2023-03-14T05:25:23;7.70;;;2.70;;
14080;SDS011;7116;52.152;5.392;2023-03-14T05:27:49;5.47;;;3.33;;
14080;SDS011;7116;52.152;5.392;2023-03-14T05:30:14;9.53;;;3.37;;
14080;SDS011;7116;52.152;5.392;2023-03-14T05:32:39;6.23;;;3.40;;
14080;SDS011;7116;52.152;5.392;2023-03-14T05:35:04;8.77;;;3.80;;
14080;SDS011;7116;52.152;5.392;2023-03-14T05:37:29;8.10;;;3.83;;
14080;SDS011;7116;52.152;5.392;2023-03-14T05:39:54;11.73;;;3.77;;
14080;SDS011;7116;52.152;5.392;2023-03-14T05:42:20;9.10;;;4.20;;
14080;SDS011;7116;52.152;5.392;2023-03-14T05:44:45;11.27;;;4.53;;
14080;SDS011;7116;52.152;5.392;2023-03-14T05:47:10;10.47;;;3.70;;
14080;SDS011;7116;52.152;5.392;2023-03-14T05:49:35;8.30;;;3.33;;
14080;SDS011;7116;52.152;5.392;2023-03-14T05:52:01;12.17;;;3.87;;
14080;SDS011;7116;52.152;5.392;2023-03-14T05:54:26;7.03;;;3.53;;
14080;SDS011;7116;52.152;5.392;2023-03-14T05:56:51;10.77;;;4.30;;
14080;SDS011;7116;52.152;5.392;2023-03-14T05:59:16;7.47;;;3.77;;
14080;SDS011;7116;52.152;5.392;2023-03-14T06:01:41;9.93;;;4.47;;
14080;SDS011;7116;52.152;5.392;2023-03-14T06:04:07;12.10;;;4.57;;
14080;SDS011;7116;52.152;5.392;2023-03-14T06:06:32;11.13;;;4.13;;
14080;SDS011;7116;52.152;5.392;2023-03-14T06:08:57;10.33;;;4.50;;
14080;SDS011;7116;52.152;5.392;2023-03-14T06:11:22;7.77;;;3.87;;
14080;SDS011;7116;52.152;5.392;2023-03-14T06:13:47;6.67;;;4.57;;
14080;SDS011;7116;52.152;5.392;2023-03-14T06:16:12;8.77;;;5.23;;
14080;SDS011;7116;52.152;5.392;2023-03-14T06:18:39;9.88;;;4.18;;
14080;SDS011;7116;52.152;5.392;2023-03-14T06:21:04;7.67;;;4.87;;
14080;SDS011;7116;52.152;5.392;2023-03-14T06:23:29;8.00;;;4.27;;
14080;SDS011;7116;52.152;5.392;2023-03-14T06:25:56;11.55;;;5.18;;
14080;SDS011;7116;52.152;5.392;2023-03-14T06:28:21;13.20;;;4.70;;
14080;SDS011;7116;52.152;5.392;2023-03-14T06:30:47;11.00;;;5.00;;
14080;SDS011;7116;52.152;5.392;2023-03-14T06:33:12;9.00;;;5.17;;
14080;SDS011;7116;52.152;5.392;2023-03-14T06:35:37;10.63;;;5.17;;
14080;SDS011;7116;52.152;5.392;2023-03-14T06:38:02;9.37;;;4.97;;
14080;SDS011;7116;52.152;5.392;2023-03-14T06:40:27;7.07;;;4.20;;
14080;SDS011;7116;52.152;5.392;2023-03-14T06:42:53;6.37;;;3.63;;
14080;SDS011;7116;52.152;5.392;2023-03-14T06:45:18;6.77;;;3.33;;
14080;SDS011;7116;52.152;5.392;2023-03-14T06:47:43;3.50;;;2.37;;
14080;SDS011;7116;52.152;5.392;2023-03-14T06:50:09;5.23;;;2.53;;
14080;SDS011;7116;52.152;5.392;2023-03-14T06:52:34;3.65;;;2.63;;
14080;SDS011;7116;52.152;5.392;2023-03-14T06:54:59;4.43;;;2.20;;
14080;SDS011;7116;52.152;5.392;2023-03-14T06:57:25;7.00;;;3.20;;
14080;SDS011;7116;52.152;5.392;2023-03-14T06:59:50;2.83;;;2.33;;
14080;SDS011;7116;52.152;5.392;2023-03-14T07:02:15;3.70;;;2.40;;
14080;SDS011;7116;52.152;5.392;2023-03-14T07:04:40;5.37;;;2.23;;
14080;SDS011;7116;52.152;5.392;2023-03-14T07:07:05;6.90;;;2.43;;
14080;SDS011;7116;52.152;5.392;2023-03-14T07:09:31;3.33;;;2.67;;
14080;SDS011;7116;52.152;5.392;2023-03-14T07:11:56;3.87;;;2.63;;
14080;SDS011;7116;52.152;5.392;2023-03-14T07:14:21;4.53;;;2.93;;
14080;SDS011;7116;52.152;5.392;2023-03-14T07:16:46;3.37;;;2.50;;
14080;SDS011;7116;52.152;5.392;2023-03-14T07:19:12;5.97;;;2.50;;
14080;SDS011;7116;52.152;5.392;2023-03-14T07:21:37;3.90;;;2.20;;
14080;SDS011;7116;52.152;5.392;2023-03-14T07:24:02;5.70;;;2.33;;
14080;SDS011;7116;52.152;5.392;2023-03-14T07:26:27;3.40;;;2.10;;
14080;SDS011;7116;52.152;5.392;2023-03-14T07:28:53;3.17;;;2.43;;
14080;SDS011;7116;52.152;5.392;2023-03-14T07:31:18;5.67;;;2.57;;
14080;SDS011;7116;52.152;5.392;2023-03-14T07:33:43;4.10;;;2.53;;
14080;SDS011;7116;52.152;5.392;2023-03-14T07:36:09;6.15;;;2.70;;
14080;SDS011;7116;52.152;5.392;2023-03-14T07:38:34;3.57;;;2.47;;
14080;SDS011;7116;52.152;5.392;2023-03-14T07:41:00;4.17;;;2.20;;
14080;SDS011;7116;52.152;5.392;2023-03-14T07:43:25;3.42;;;2.20;;
14080;SDS011;7116;52.152;5.392;2023-03-14T07:45:50;5.33;;;2.50;;
14080;SDS011;7116;52.152;5.392;2023-03-14T07:48:16;4.47;;;2.80;;
14080;SDS011;7116;52.152;5.392;2023-03-14T07:50:41;2.83;;;2.30;;
14080;SDS011;7116;52.152;5.392;2023-03-14T07:53:06;5.50;;;2.93;;
14080;SDS011;7116;52.152;5.392;2023-03-14T07:55:31;4.77;;;2.27;;
14080;SDS011;7116;52.152;5.392;2023-03-14T07:57:56;2.87;;;2.13;;
14080;SDS011;7116;52.152;5.392;2023-03-14T08:00:22;4.20;;;2.23;;
14080;SDS011;7116;52.152;5.392;2023-03-14T08:02:47;5.17;;;2.40;;
14080;SDS011;7116;52.152;5.392;2023-03-14T08:05:12;8.87;;;2.53;;
14080;SDS011;7116;52.152;5.392;2023-03-14T08:07:37;4.67;;;2.53;;
14080;SDS011;7116;52.152;5.392;2023-03-14T08:10:03;9.97;;;2.50;;
14080;SDS011;7116;52.152;5.392;2023-03-14T08:12:28;9.77;;;3.23;;
14080;SDS011;7116;52.152;5.392;2023-03-14T08:14:53;5.53;;;2.40;;
14080;SDS011;7116;52.152;5.392;2023-03-14T08:17:19;7.40;;;3.10;;
14080;SDS011;7116;52.152;5.392;2023-03-14T08:19:44;6.63;;;2.80;;
14080;SDS011;7116;52.152;5.392;2023-03-14T08:22:09;3.23;;;1.80;;
14080;SDS011;7116;52.152;5.392;2023-03-14T08:24:34;6.33;;;2.47;;
14080;SDS011;7116;52.152;5.392;2023-03-14T08:26:59;6.53;;;2.70;;
14080;SDS011;7116;52.152;5.392;2023-03-14T08:29:25;6.87;;;2.30;;
14080;SDS011;7116;52.152;5.392;2023-03-14T08:31:50;8.13;;;3.27;;
14080;SDS011;7116;52.152;5.392;2023-03-14T08:34:15;3.53;;;2.10;;
14080;SDS011;7116;52.152;5.392;2023-03-14T08:36:41;7.37;;;2.27;;
14080;SDS011;7116;52.152;5.392;2023-03-14T08:39:06;6.97;;;2.22;;
14080;SDS011;7116;52.152;5.392;2023-03-14T08:41:32;7.03;;;2.10;;
14080;SDS011;7116;52.152;5.392;2023-03-14T08:43:57;3.00;;;1.80;;
14080;SDS011;7116;52.152;5.392;2023-03-14T08:46:22;5.10;;;2.33;;
14080;SDS011;7116;52.152;5.392;2023-03-14T08:48:47;5.27;;;2.60;;
14080;SDS011;7116;52.152;5.392;2023-03-14T08:51:13;6.20;;;2.97;;
14080;SDS011;7116;52.152;5.392;2023-03-14T08:53:39;6.00;;;3.00;;
14080;SDS011;7116;52.152;5.392;2023-03-14T08:56:04;6.05;;;2.70;;
14080;SDS011;7116;52.152;5.392;2023-03-14T08:58:31;7.23;;;2.23;;
14080;SDS011;7116;52.152;5.392;2023-03-14T09:00:56;8.32;;;2.08;;
14080;SDS011;7116;52.152;5.392;2023-03-14T09:03:21;8.23;;;2.60;;
14080;SDS011;7116;52.152;5.392;2023-03-14T09:05:48;7.85;;;3.03;;
14080;SDS011;7116;52.152;5.392;2023-03-14T09:08:13;7.63;;;2.47;;
14080;SDS011;7116;52.152;5.392;2023-03-14T09:10:38;7.60;;;2.87;;
14080;SDS011;7116;52.152;5.392;2023-03-14T09:13:03;10.50;;;2.93;;
14080;SDS011;7116;52.152;5.392;2023-03-14T09:15:29;9.97;;;3.00;;
14080;SDS011;7116;52.152;5.392;2023-03-14T09:17:54;10.60;;;3.10;;
14080;SDS011;7116;52.152;5.392;2023-03-14T09:20:19;8.97;;;3.10;;
14080;SDS011;7116;52.152;5.392;2023-03-14T09:22:44;11.43;;;3.40;;
14080;SDS011;7116;52.152;5.392;2023-03-14T09:25:10;9.57;;;2.90;;
14080;SDS011;7116;52.152;5.392;2023-03-14T09:27:35;15.73;;;3.10;;
14080;SDS011;7116;52.152;5.392;2023-03-14T09:30:01;16.52;;;3.28;;
14080;SDS011;7116;52.152;5.392;2023-03-14T09:32:26;12.10;;;3.60;;
14080;SDS011;7116;52.152;5.392;2023-03-14T09:34:51;15.87;;;2.60;;
14080;SDS011;7116;52.152;5.392;2023-03-14T09:37:16;9.50;;;2.90;;
14080;SDS011;7116;52.152;5.392;2023-03-14T09:39:42;14.77;;;3.63;;
14080;SDS011;7116;52.152;5.392;2023-03-14T09:42:07;12.50;;;3.40;;
14080;SDS011;7116;52.152;5.392;2023-03-14T09:44:35;13.57;;;3.22;;
14080;SDS011;7116;52.152;5.392;2023-03-14T09:47:11;12.38;;;3.30;;
14080;SDS011;7116;52.152;5.392;2023-03-14T09:49:37;12.17;;;3.33;;
14080;SDS011;7116;52.152;5.392;2023-03-14T09:52:21;18.85;;;3.88;;
14080;SDS011;7116;52.152;5.392;2023-03-14T09:54:55;13.55;;;3.30;;
14080;SDS011;7116;52.152;5.392;2023-03-14T09:57:26;11.85;;;4.32;;
14080;SDS011;7116;52.152;5.392;2023-03-14T09:59:53;11.77;;;3.42;;
14080;SDS011;7116;52.152;5.392;2023-03-14T10:02:28;14.13;;;3.60;;
14080;SDS011;7116;52.152;5.392;2023-03-14T10:04:56;12.45;;;4.22;;
14080;SDS011;7116;52.152;5.392;2023-03-14T10:07:23;12.17;;;3.67;;
14080;SDS011;7116;52.152;5.392;2023-03-14T10:09:50;14.10;;;3.78;;
14080;SDS011;7116;52.152;5.392;2023-03-14T10:12:16;13.40;;;4.00;;
14080;SDS011;7116;52.152;5.392;2023-03-14T10:14:49;20.35;;;4.43;;
14080;SDS011;7116;52.152;5.392;2023-03-14T10:17:15;12.85;;;4.00;;
14080;SDS011;7116;52.152;5.392;2023-03-14T10:22:19;11.43;;;3.97;;
14080;SDS011;7116;52.152;5.392;2023-03-14T10:24:46;15.13;;;3.77;;
14080;SDS011;7116;52.152;5.392;2023-03-14T10:27:21;12.10;;;3.92;;
14080;SDS011;7116;52.152;5.392;2023-03-14T10:29:54;13.43;;;4.22;;
14080;SDS011;7116;52.152;5.392;2023-03-14T10:32:21;17.63;;;4.13;;
14080;SDS011;7116;52.152;5.392;2023-03-14T10:34:46;12.40;;;3.57;;
14080;SDS011;7116;52.152;5.392;2023-03-14T10:37:28;19.33;;;4.85;;
14080;SDS011;7116;52.152;5.392;2023-03-14T10:39:53;14.93;;;3.83;;
14080;SDS011;7116;52.152;5.392;2023-03-14T10:42:27;12.98;;;4.25;;
14080;SDS011;7116;52.152;5.392;2023-03-14T10:45:00;15.70;;;3.67;;
14080;SDS011;7116;52.152;5.392;2023-03-14T10:47:27;14.05;;;4.13;;
14080;SDS011;7116;52.152;5.392;2023-03-14T10:49:53;14.33;;;3.27;;
14080;SDS011;7116;52.152;5.392;2023-03-14T10:52:26;21.63;;;4.63;;
14080;SDS011;7116;52.152;5.392;2023-03-14T10:54:57;20.88;;;3.88;;
14080;SDS011;7116;52.152;5.392;2023-03-14T10:57:22;16.40;;;4.00;;
14080;SDS011;7116;52.152;5.392;2023-03-14T10:59:47;13.47;;;3.53;;
14080;SDS011;7116;52.152;5.392;2023-03-14T11:02:17;17.60;;;3.77;;
14080;SDS011;7116;52.152;5.392;2023-03-14T11:04:59;17.65;;;3.63;;
14080;SDS011;7116;52.152;5.392;2023-03-14T11:07:39;19.67;;;3.90;;
14080;SDS011;7116;52.152;5.392;2023-03-14T11:12:38;19.55;;;4.28;;
14080;SDS011;7116;52.152;5.392;2023-03-14T11:15:25;14.82;;;3.83;;
14080;SDS011;7116;52.152;5.392;2023-03-14T11:20:35;18.50;;;3.23;;
14080;SDS011;7116;52.152;5.392;2023-03-14T11:23:04;14.60;;;3.50;;
14080;SDS011;7116;52.152;5.392;2023-03-14T11:25:54;10.60;;;3.38;;
14080;SDS011;7116;52.152;5.392;2023-03-14T11:28:37;21.58;;;3.15;;
14080;SDS011;7116;52.152;5.392;2023-03-14T11:34:10;14.57;;;2.93;;
14080;SDS011;7116;52.152;5.392;2023-03-14T11:36:44;10.82;;;2.65;;
14080;SDS011;7116;52.152;5.392;2023-03-14T11:39:13;9.45;;;2.92;;
14080;SDS011;7116;52.152;5.392;2023-03-14T11:41:40;12.38;;;2.67;;
14080;SDS011;7116;52.152;5.392;2023-03-14T11:44:10;8.85;;;2.90;;
14080;SDS011;7116;52.152;5.392;2023-03-14T11:46:41;10.77;;;2.73;;
14080;SDS011;7116;52.152;5.392;2023-03-14T11:51:35;10.23;;;3.20;;
14080;SDS011;7116;52.152;5.392;2023-03-14T11:56:29;9.90;;;3.10;;
14080;SDS011;7116;52.152;5.392;2023-03-14T12:01:50;12.40;;;2.80;;
14080;SDS011;7116;52.152;5.392;2023-03-14T12:04:22;10.57;;;2.97;;
14080;SDS011;7116;52.152;5.392;2023-03-14T12:06:48;9.15;;;2.33;;
14080;SDS011;7116;52.152;5.392;2023-03-14T12:09:14;12.00;;;2.83;;
14080;SDS011;7116;52.152;5.392;2023-03-14T12:11:40;10.43;;;2.43;;
14080;SDS011;7116;52.152;5.392;2023-03-14T12:14:20;12.68;;;3.08;;
14080;SDS011;7116;52.152;5.392;2023-03-14T12:16:47;9.82;;;2.97;;
14080;SDS011;7116;52.152;5.392;2023-03-14T12:21:50;8.75;;;2.95;;
14080;SDS011;7116;52.152;5.392;2023-03-14T12:24:19;6.27;;;2.23;;
14080;SDS011;7116;52.152;5.392;2023-03-14T12:26:54;9.23;;;2.75;;
14080;SDS011;7116;52.152;5.392;2023-03-14T12:29:19;10.70;;;2.67;;
14080;SDS011;7116;52.152;5.392;2023-03-14T12:31:46;6.73;;;2.30;;
14080;SDS011;7116;52.152;5.392;2023-03-14T12:42:04;9.10;;;2.42;;
14080;SDS011;7116;52.152;5.392;2023-03-14T12:46:58;11.33;;;2.50;;
14080;SDS011;7116;52.152;5.392;2023-03-14T12:49:29;9.48;;;2.88;;
14080;SDS011;7116;52.152;5.392;2023-03-14T12:51:59;8.38;;;2.80;;
14080;SDS011;7116;52.152;5.392;2023-03-14T12:54:42;8.55;;;2.70;;
14080;SDS011;7116;52.152;5.392;2023-03-14T12:59:46;9.20;;;2.40;;
14080;SDS011;7116;52.152;5.392;2023-03-14T13:02:14;10.57;;;2.92;;
14080;SDS011;7116;52.152;5.392;2023-03-14T13:07:11;8.73;;;2.25;;
14080;SDS011;7116;52.152;5.392;2023-03-14T13:09:45;6.15;;;2.22;;
14080;SDS011;7116;52.152;5.392;2023-03-14T13:12:16;8.17;;;2.70;;
14080;SDS011;7116;52.152;5.392;2023-03-14T13:14:46;6.07;;;2.28;;
14080;SDS011;7116;52.152;5.392;2023-03-14T13:17:12;6.95;;;2.33;;
14080;SDS011;7116;52.152;5.392;2023-03-14T13:19:38;7.88;;;2.42;;
14080;SDS011;7116;52.152;5.392;2023-03-14T13:22:04;7.83;;;2.70;;
14080;SDS011;7116;52.152;5.392;2023-03-14T13:24:32;9.85;;;2.63;;
14080;SDS011;7116;52.152;5.392;2023-03-14T13:26:58;9.80;;;2.35;;
14080;SDS011;7116;52.152;5.392;2023-03-14T13:29:24;10.07;;;2.80;;
14080;SDS011;7116;52.152;5.392;2023-03-14T13:31:51;7.50;;;2.37;;
14080;SDS011;7116;52.152;5.392;2023-03-14T13:34:17;7.63;;;2.72;;
14080;SDS011;7116;52.152;5.392;2023-03-14T13:36:42;6.67;;;2.13;;
14080;SDS011;7116;52.152;5.392;2023-03-14T13:39:12;6.17;;;2.00;;
14080;SDS011;7116;52.152;5.392;2023-03-14T13:41:38;7.60;;;2.60;;
14080;SDS011;7116;52.152;5.392;2023-03-14T13:44:05;6.97;;;2.70;;
14080;SDS011;7116;52.152;5.392;2023-03-14T13:46:31;7.07;;;2.33;;
14080;SDS011;7116;52.152;5.392;2023-03-14T13:48:58;9.25;;;2.35;;
14080;SDS011;7116;52.152;5.392;2023-03-14T13:51:25;9.35;;;2.50;;
14080;SDS011;7116;52.152;5.392;2023-03-14T13:53:53;7.90;;;2.95;;
14080;SDS011;7116;52.152;5.392;2023-03-14T13:56:19;11.47;;;2.80;;
14080;SDS011;7116;52.152;5.392;2023-03-14T13:58:45;9.07;;;2.38;;
14080;SDS011;7116;52.152;5.392;2023-03-14T14:01:14;13.57;;;2.70;;
14080;SDS011;7116;52.152;5.392;2023-03-14T14:03:41;10.90;;;2.83;;
14080;SDS011;7116;52.152;5.392;2023-03-14T14:06:29;7.63;;;2.70;;
14080;SDS011;7116;52.152;5.392;2023-03-14T14:08:55;9.38;;;2.78;;
14080;SDS011;7116;52.152;5.392;2023-03-14T14:11:22;10.67;;;3.10;;
14080;SDS011;7116;52.152;5.392;2023-03-14T14:13:50;9.45;;;2.30;;
14080;SDS011;7116;52.152;5.392;2023-03-14T14:16:16;8.00;;;2.60;;
14080;SDS011;7116;52.152;5.392;2023-03-14T14:18:42;12.13;;;2.90;;
14080;SDS011;7116;52.152;5.392;2023-03-14T14:21:08;8.17;;;2.60;;
14080;SDS011;7116;52.152;5.392;2023-03-14T14:23:35;9.73;;;2.90;;
14080;SDS011;7116;52.152;5.392;2023-03-14T14:26:01;8.70;;;2.87;;
14080;SDS011;7116;52.152;5.392;2023-03-14T14:28:33;7.82;;;2.63;;
14080;SDS011;7116;52.152;5.392;2023-03-14T14:31:20;8.27;;;3.03;;
14080;SDS011;7116;52.152;5.392;2023-03-14T14:33:45;7.05;;;2.30;;
14080;SDS011;7116;52.152;5.392;2023-03-14T14:36:30;6.40;;;2.63;;
14080;SDS011;7116;52.152;5.392;2023-03-14T14:39:00;8.47;;;3.17;;
14080;SDS011;7116;52.152;5.392;2023-03-14T14:41:29;7.45;;;2.58;;
14080;SDS011;7116;52.152;5.392;2023-03-14T14:43:55;10.82;;;2.40;;
14080;SDS011;7116;52.152;5.392;2023-03-14T14:46:20;5.53;;;2.80;;
14080;SDS011;7116;52.152;5.392;2023-03-14T14:48:46;10.17;;;2.67;;
14080;SDS011;7116;52.152;5.392;2023-03-14T14:51:22;7.90;;;2.50;;
14080;SDS011;7116;52.152;5.392;2023-03-14T14:53:47;7.80;;;2.47;;
14080;SDS011;7116;52.152;5.392;2023-03-14T14:56:16;7.67;;;2.67;;
14080;SDS011;7116;52.152;5.392;2023-03-14T14:58:44;6.13;;;2.97;;
14080;SDS011;7116;52.152;5.392;2023-03-14T15:01:17;10.40;;;3.25;;
14080;SDS011;7116;52.152;5.392;2023-03-14T15:03:43;7.88;;;2.42;;
14080;SDS011;7116;52.152;5.392;2023-03-14T15:06:10;7.33;;;2.27;;
14080;SDS011;7116;52.152;5.392;2023-03-14T15:08:36;10.40;;;2.78;;
14080;SDS011;7116;52.152;5.392;2023-03-14T15:11:02;6.27;;;2.80;;
14080;SDS011;7116;52.152;5.392;2023-03-14T15:13:27;8.03;;;2.70;;
14080;SDS011;7116;52.152;5.392;2023-03-14T15:15:52;9.23;;;2.73;;
14080;SDS011;7116;52.152;5.392;2023-03-14T15:18:20;6.78;;;2.70;;
14080;SDS011;7116;52.152;5.392;2023-03-14T15:20:46;5.85;;;2.50;;
14080;SDS011;7116;52.152;5.392;2023-03-14T15:23:12;7.07;;;2.80;;
14080;SDS011;7116;52.152;5.392;2023-03-14T15:25:38;6.25;;;3.15;;
14080;SDS011;7116;52.152;5.392;2023-03-14T15:28:14;10.27;;;2.63;;
14080;SDS011;7116;52.152;5.392;2023-03-14T15:30:40;7.32;;;2.53;;
14080;SDS011;7116;52.152;5.392;2023-03-14T15:33:05;10.33;;;2.57;;
14080;SDS011;7116;52.152;5.392;2023-03-14T15:35:33;6.05;;;2.40;;
14080;SDS011;7116;52.152;5.392;2023-03-14T15:37:59;11.70;;;2.00;;
14080;SDS011;7116;52.152;5.392;2023-03-14T15:40:24;8.20;;;2.30;;
14080;SDS011;7116;52.152;5.392;2023-03-14T15:42:49;8.17;;;2.43;;